sensor_id;sensor_type;location;lat;lon;timestamp;temperature;humidity
11389;DHT22;5750;48.474;8.952;2022-08-21T00:02:02;18.40;99.90
11389;DHT22;5750;48.474;8.952;2022-08-21T00:04:29;18.60;99.90
11389;DHT22;5750;48.474;8.952;2022-08-21T00:06:56;18.60;99.90
11389;DHT22;5750;48.474;8.952;2022-08-21T00:09:23;18.40;99.90
11389;DHT22;5750;48.474;8.952;2022-08-21T00:11:50;18.30;99.90
11389;DHT22;5750;48.474;8.952;2022-08-21T00:14:18;18.20;99.90
11389;DHT22;5750;48.474;8.952;2022-08-21T00:16:45;18.10;99.90
11389;DHT22;5750;48.474;8.952;2022-08-21T00:19:11;18.00;99.90
11389;DHT22;5750;48.474;8.952;2022-08-21T00:21:38;17.80;99.90
11389;DHT22;5750;48.474;8.952;2022-08-21T00:24:05;17.60;99.90
11389;DHT22;5750;48.474;8.952;2022-08-21T00:26:32;17.80;99.90
11389;DHT22;5750;48.474;8.952;2022-08-21T00:28:58;17.80;99.90
11389;DHT22;5750;48.474;8.952;2022-08-21T00:31:26;17.80;99.90
11389;DHT22;5750;48.474;8.952;2022-08-21T00:33:53;17.80;99.90
11389;DHT22;5750;48.474;8.952;2022-08-21T00:36:20;18.00;99.90
11389;DHT22;5750;48.474;8.952;2022-08-21T00:38:46;17.80;99.90
11389;DHT22;5750;48.474;8.952;2022-08-21T00:41:13;18.00;99.90
11389;DHT22;5750;48.474;8.952;2022-08-21T00:43:40;17.80;99.90
11389;DHT22;5750;48.474;8.952;2022-08-21T00:46:07;17.80;99.90
11389;DHT22;5750;48.474;8.952;2022-08-21T00:48:35;17.80;99.90
11389;DHT22;5750;48.474;8.952;2022-08-21T00:51:05;17.30;99.90
11389;DHT22;5750;48.474;8.952;2022-08-21T00:53:33;17.70;99.90
11389;DHT22;5750;48.474;8.952;2022-08-21T00:56:01;17.80;99.90
11389;DHT22;5750;48.474;8.952;2022-08-21T00:58:29;17.80;99.90
11389;DHT22;5750;48.474;8.952;2022-08-21T01:00:59;17.80;99.90
11389;DHT22;5750;48.474;8.952;2022-08-21T01:03:27;17.90;99.90
11389;DHT22;5750;48.474;8.952;2022-08-21T01:05:55;17.90;99.90
11389;DHT22;5750;48.474;8.952;2022-08-21T01:08:22;17.80;99.90
11389;DHT22;5750;48.474;8.952;2022-08-21T01:10:50;17.70;99.90
11389;DHT22;5750;48.474;8.952;2022-08-21T01:13:18;17.80;99.90
11389;DHT22;5750;48.474;8.952;2022-08-21T01:15:48;17.90;99.90
11389;DHT22;5750;48.474;8.952;2022-08-21T01:18:18;17.80;99.90
11389;DHT22;5750;48.474;8.952;2022-08-21T01:20:58;18.10;99.90
11389;DHT22;5750;48.474;8.952;2022-08-21T01:23:25;17.80;99.90
11389;DHT22;5750;48.474;8.952;2022-08-21T01:25:51;17.90;99.90
11389;DHT22;5750;48.474;8.952;2022-08-21T01:28:19;17.90;99.90
11389;DHT22;5750;48.474;8.952;2022-08-21T01:30:49;17.80;99.90
11389;DHT22;5750;48.474;8.952;2022-08-21T01:33:17;17.80;99.90
11389;DHT22;5750;48.474;8.952;2022-08-21T01:35:44;18.00;99.90
11389;DHT22;5750;48.474;8.952;2022-08-21T01:38:12;17.70;99.90
11389;DHT22;5750;48.474;8.952;2022-08-21T01:40:39;17.90;99.90
11389;DHT22;5750;48.474;8.952;2022-08-21T01:43:05;17.80;99.90
11389;DHT22;5750;48.474;8.952;2022-08-21T01:48:54;17.80;99.90
11389;DHT22;5750;48.474;8.952;2022-08-21T01:51:21;17.80;99.90
11389;DHT22;5750;48.474;8.952;2022-08-21T01:53:49;17.70;99.90
11389;DHT22;5750;48.474;8.952;2022-08-21T01:56:17;17.60;99.90
11389;DHT22;5750;48.474;8.952;2022-08-21T01:58:45;17.70;99.90
11389;DHT22;5750;48.474;8.952;2022-08-21T02:01:12;17.50;99.90
11389;DHT22;5750;48.474;8.952;2022-08-21T02:03:40;17.50;99.90
11389;DHT22;5750;48.474;8.952;2022-08-21T02:06:13;17.50;99.90
11389;DHT22;5750;48.474;8.952;2022-08-21T02:08:40;17.50;99.90
11389;DHT22;5750;48.474;8.952;2022-08-21T02:11:08;17.40;99.90
11389;DHT22;5750;48.474;8.952;2022-08-21T02:13:35;17.50;99.90
11389;DHT22;5750;48.474;8.952;2022-08-21T02:16:02;17.50;99.90
11389;DHT22;5750;48.474;8.952;2022-08-21T02:18:28;17.40;99.90
11389;DHT22;5750;48.474;8.952;2022-08-21T02:20:56;17.30;99.90
11389;DHT22;5750;48.474;8.952;2022-08-21T02:23:23;17.50;99.90
11389;DHT22;5750;48.474;8.952;2022-08-21T02:25:50;17.50;99.90
11389;DHT22;5750;48.474;8.952;2022-08-21T02:28:18;17.90;99.90
11389;DHT22;5750;48.474;8.952;2022-08-21T02:30:46;17.90;99.90
11389;DHT22;5750;48.474;8.952;2022-08-21T02:33:13;17.50;99.90
11389;DHT22;5750;48.474;8.952;2022-08-21T02:35:41;17.40;99.90
11389;DHT22;5750;48.474;8.952;2022-08-21T02:38:10;17.30;99.90
11389;DHT22;5750;48.474;8.952;2022-08-21T02:40:40;17.20;99.90
11389;DHT22;5750;48.474;8.952;2022-08-21T02:43:07;17.10;99.90
11389;DHT22;5750;48.474;8.952;2022-08-21T02:45:36;17.10;99.90
11389;DHT22;5750;48.474;8.952;2022-08-21T02:48:05;17.10;99.90
11389;DHT22;5750;48.474;8.952;2022-08-21T02:50:36;17.00;99.90
11389;DHT22;5750;48.474;8.952;2022-08-21T02:53:04;17.10;99.90
11389;DHT22;5750;48.474;8.952;2022-08-21T02:55:33;17.10;99.90
11389;DHT22;5750;48.474;8.952;2022-08-21T02:58:01;17.10;99.90
11389;DHT22;5750;48.474;8.952;2022-08-21T03:00:29;17.10;99.90
11389;DHT22;5750;48.474;8.952;2022-08-21T03:02:58;17.20;99.90
11389;DHT22;5750;48.474;8.952;2022-08-21T03:05:27;17.10;99.90
11389;DHT22;5750;48.474;8.952;2022-08-21T03:07:54;17.10;99.90
11389;DHT22;5750;48.474;8.952;2022-08-21T03:10:21;17.10;99.90
11389;DHT22;5750;48.474;8.952;2022-08-21T03:12:48;17.30;99.90
11389;DHT22;5750;48.474;8.952;2022-08-21T03:15:17;17.10;99.90
11389;DHT22;5750;48.474;8.952;2022-08-21T03:17:45;17.00;99.90
11389;DHT22;5750;48.474;8.952;2022-08-21T03:20:16;17.20;99.90
11389;DHT22;5750;48.474;8.952;2022-08-21T03:22:43;17.00;99.90
11389;DHT22;5750;48.474;8.952;2022-08-21T03:25:10;17.40;99.90
11389;DHT22;5750;48.474;8.952;2022-08-21T03:27:37;16.90;99.90
11389;DHT22;5750;48.474;8.952;2022-08-21T03:30:05;17.20;99.90
11389;DHT22;5750;48.474;8.952;2022-08-21T03:32:33;16.80;99.90
11389;DHT22;5750;48.474;8.952;2022-08-21T03:35:01;16.80;99.90
11389;DHT22;5750;48.474;8.952;2022-08-21T03:37:29;16.60;99.90
11389;DHT22;5750;48.474;8.952;2022-08-21T03:39:56;16.70;99.90
11389;DHT22;5750;48.474;8.952;2022-08-21T03:42:22;16.60;99.90
11389;DHT22;5750;48.474;8.952;2022-08-21T03:44:49;16.60;99.90
11389;DHT22;5750;48.474;8.952;2022-08-21T03:47:16;16.70;99.90
11389;DHT22;5750;48.474;8.952;2022-08-21T03:49:43;16.90;99.90
11389;DHT22;5750;48.474;8.952;2022-08-21T03:52:10;16.70;99.90
11389;DHT22;5750;48.474;8.952;2022-08-21T03:54:38;16.60;99.90
11389;DHT22;5750;48.474;8.952;2022-08-21T03:57:06;16.50;99.90
11389;DHT22;5750;48.474;8.952;2022-08-21T03:59:34;16.50;99.90
11389;DHT22;5750;48.474;8.952;2022-08-21T04:02:03;16.50;99.90
11389;DHT22;5750;48.474;8.952;2022-08-21T04:04:30;16.50;99.90
11389;DHT22;5750;48.474;8.952;2022-08-21T04:06:57;16.50;99.90
11389;DHT22;5750;48.474;8.952;2022-08-21T04:09:24;16.70;99.90
11389;DHT22;5750;48.474;8.952;2022-08-21T04:11:53;16.40;99.90
11389;DHT22;5750;48.474;8.952;2022-08-21T04:14:20;16.40;99.90
11389;DHT22;5750;48.474;8.952;2022-08-21T04:16:47;16.40;99.90
11389;DHT22;5750;48.474;8.952;2022-08-21T04:19:14;16.40;99.90
11389;DHT22;5750;48.474;8.952;2022-08-21T04:21:42;16.30;99.90
11389;DHT22;5750;48.474;8.952;2022-08-21T04:24:09;16.50;99.90
11389;DHT22;5750;48.474;8.952;2022-08-21T04:26:37;16.60;99.90
11389;DHT22;5750;48.474;8.952;2022-08-21T04:29:06;16.50;99.90
11389;DHT22;5750;48.474;8.952;2022-08-21T04:31:33;16.50;99.90
11389;DHT22;5750;48.474;8.952;2022-08-21T04:34:00;16.60;99.90
11389;DHT22;5750;48.474;8.952;2022-08-21T04:36:26;16.90;99.90
11389;DHT22;5750;48.474;8.952;2022-08-21T04:38:53;16.50;99.90
11389;DHT22;5750;48.474;8.952;2022-08-21T04:41:20;16.50;99.90
11389;DHT22;5750;48.474;8.952;2022-08-21T04:43:46;16.80;99.90
11389;DHT22;5750;48.474;8.952;2022-08-21T04:46:15;16.50;99.90
11389;DHT22;5750;48.474;8.952;2022-08-21T04:48:41;16.40;99.90
11389;DHT22;5750;48.474;8.952;2022-08-21T04:51:10;16.50;99.90
11389;DHT22;5750;48.474;8.952;2022-08-21T04:53:40;16.50;99.90
11389;DHT22;5750;48.474;8.952;2022-08-21T04:56:11;16.50;99.90
11389;DHT22;5750;48.474;8.952;2022-08-21T04:58:39;16.50;99.90
11389;DHT22;5750;48.474;8.952;2022-08-21T05:01:09;16.20;99.90
11389;DHT22;5750;48.474;8.952;2022-08-21T05:03:38;16.30;99.90
11389;DHT22;5750;48.474;8.952;2022-08-21T05:06:07;16.20;99.90
11389;DHT22;5750;48.474;8.952;2022-08-21T05:08:37;16.10;99.90
11389;DHT22;5750;48.474;8.952;2022-08-21T05:11:04;16.00;99.90
11389;DHT22;5750;48.474;8.952;2022-08-21T05:13:33;15.80;99.90
11389;DHT22;5750;48.474;8.952;2022-08-21T05:15:59;15.80;99.90
11389;DHT22;5750;48.474;8.952;2022-08-21T05:18:26;15.90;99.90
11389;DHT22;5750;48.474;8.952;2022-08-21T05:20:54;15.90;99.90
11389;DHT22;5750;48.474;8.952;2022-08-21T05:23:21;15.90;99.90
11389;DHT22;5750;48.474;8.952;2022-08-21T05:25:47;16.00;99.90
11389;DHT22;5750;48.474;8.952;2022-08-21T05:28:14;16.00;99.90
11389;DHT22;5750;48.474;8.952;2022-08-21T05:30:41;16.40;99.90
11389;DHT22;5750;48.474;8.952;2022-08-21T05:33:07;16.10;99.90
11389;DHT22;5750;48.474;8.952;2022-08-21T05:35:34;16.20;99.90
11389;DHT22;5750;48.474;8.952;2022-08-21T05:38:03;16.30;99.90
11389;DHT22;5750;48.474;8.952;2022-08-21T05:40:31;16.60;99.90
11389;DHT22;5750;48.474;8.952;2022-08-21T05:42:58;16.80;99.90
11389;DHT22;5750;48.474;8.952;2022-08-21T05:45:28;16.60;99.90
11389;DHT22;5750;48.474;8.952;2022-08-21T05:47:55;16.60;99.90
11389;DHT22;5750;48.474;8.952;2022-08-21T05:50:22;16.70;99.90
11389;DHT22;5750;48.474;8.952;2022-08-21T05:52:48;16.70;99.90
11389;DHT22;5750;48.474;8.952;2022-08-21T05:55:16;17.00;99.90
11389;DHT22;5750;48.474;8.952;2022-08-21T05:57:43;16.60;99.90
11389;DHT22;5750;48.474;8.952;2022-08-21T06:00:11;16.70;99.90
11389;DHT22;5750;48.474;8.952;2022-08-21T06:02:38;16.70;99.90
11389;DHT22;5750;48.474;8.952;2022-08-21T06:05:05;16.70;99.90
11389;DHT22;5750;48.474;8.952;2022-08-21T06:07:32;16.80;99.90
11389;DHT22;5750;48.474;8.952;2022-08-21T06:09:59;16.80;99.90
11389;DHT22;5750;48.474;8.952;2022-08-21T06:12:27;16.80;99.90
11389;DHT22;5750;48.474;8.952;2022-08-21T06:14:54;17.00;99.90
11389;DHT22;5750;48.474;8.952;2022-08-21T06:17:21;17.50;99.90
11389;DHT22;5750;48.474;8.952;2022-08-21T06:19:51;17.00;99.90
11389;DHT22;5750;48.474;8.952;2022-08-21T06:22:18;16.80;99.90
11389;DHT22;5750;48.474;8.952;2022-08-21T06:24:45;17.00;99.90
11389;DHT22;5750;48.474;8.952;2022-08-21T06:27:12;17.10;99.90
11389;DHT22;5750;48.474;8.952;2022-08-21T06:29:40;17.40;99.90
11389;DHT22;5750;48.474;8.952;2022-08-21T06:32:09;17.20;99.90
11389;DHT22;5750;48.474;8.952;2022-08-21T06:34:37;17.90;99.90
11389;DHT22;5750;48.474;8.952;2022-08-21T06:37:04;17.20;99.90
11389;DHT22;5750;48.474;8.952;2022-08-21T06:39:31;17.30;99.90
11389;DHT22;5750;48.474;8.952;2022-08-21T06:41:59;17.50;99.90
11389;DHT22;5750;48.474;8.952;2022-08-21T06:44:26;17.50;99.90
11389;DHT22;5750;48.474;8.952;2022-08-21T06:46:54;17.50;99.90
11389;DHT22;5750;48.474;8.952;2022-08-21T06:49:20;17.70;99.90
11389;DHT22;5750;48.474;8.952;2022-08-21T06:51:47;17.80;99.90
11389;DHT22;5750;48.474;8.952;2022-08-21T06:54:14;17.70;99.90
11389;DHT22;5750;48.474;8.952;2022-08-21T06:56:40;18.30;99.90
11389;DHT22;5750;48.474;8.952;2022-08-21T06:59:07;18.00;99.90
11389;DHT22;5750;48.474;8.952;2022-08-21T07:01:34;18.10;99.90
11389;DHT22;5750;48.474;8.952;2022-08-21T07:04:03;18.30;99.90
11389;DHT22;5750;48.474;8.952;2022-08-21T07:06:30;18.30;99.90
11389;DHT22;5750;48.474;8.952;2022-08-21T07:08:57;18.30;99.90
11389;DHT22;5750;48.474;8.952;2022-08-21T07:11:24;18.40;99.90
11389;DHT22;5750;48.474;8.952;2022-08-21T07:13:51;18.40;99.90
11389;DHT22;5750;48.474;8.952;2022-08-21T07:16:19;18.60;99.90
11389;DHT22;5750;48.474;8.952;2022-08-21T07:18:46;18.80;99.90
11389;DHT22;5750;48.474;8.952;2022-08-21T07:21:15;19.00;99.90
11389;DHT22;5750;48.474;8.952;2022-08-21T07:23:46;19.20;99.90
11389;DHT22;5750;48.474;8.952;2022-08-21T07:26:14;19.70;99.90
11389;DHT22;5750;48.474;8.952;2022-08-21T07:28:41;20.00;99.90
11389;DHT22;5750;48.474;8.952;2022-08-21T07:31:09;20.30;99.90
11389;DHT22;5750;48.474;8.952;2022-08-21T07:33:39;19.80;99.90
11389;DHT22;5750;48.474;8.952;2022-08-21T07:36:06;20.50;99.90
11389;DHT22;5750;48.474;8.952;2022-08-21T07:38:35;20.30;99.90
11389;DHT22;5750;48.474;8.952;2022-08-21T07:41:02;20.20;99.90
11389;DHT22;5750;48.474;8.952;2022-08-21T07:43:32;20.50;99.90
11389;DHT22;5750;48.474;8.952;2022-08-21T07:45:58;20.50;99.90
11389;DHT22;5750;48.474;8.952;2022-08-21T07:48:25;20.70;99.90
11389;DHT22;5750;48.474;8.952;2022-08-21T07:50:52;20.90;99.90
11389;DHT22;5750;48.474;8.952;2022-08-21T07:53:20;20.80;99.90
11389;DHT22;5750;48.474;8.952;2022-08-21T07:55:48;20.80;99.90
11389;DHT22;5750;48.474;8.952;2022-08-21T07:58:16;21.00;99.90
11389;DHT22;5750;48.474;8.952;2022-08-21T08:00:43;21.00;99.90
11389;DHT22;5750;48.474;8.952;2022-08-21T08:03:09;21.00;99.90
11389;DHT22;5750;48.474;8.952;2022-08-21T08:05:37;21.40;99.90
11389;DHT22;5750;48.474;8.952;2022-08-21T08:08:04;21.10;99.90
11389;DHT22;5750;48.474;8.952;2022-08-21T08:10:31;21.40;99.90
11389;DHT22;5750;48.474;8.952;2022-08-21T08:12:59;21.90;99.90
11389;DHT22;5750;48.474;8.952;2022-08-21T08:15:27;22.20;99.90
11389;DHT22;5750;48.474;8.952;2022-08-21T08:17:54;22.40;99.90
11389;DHT22;5750;48.474;8.952;2022-08-21T08:20:24;22.40;99.90
11389;DHT22;5750;48.474;8.952;2022-08-21T08:22:52;22.60;99.90
11389;DHT22;5750;48.474;8.952;2022-08-21T08:25:20;22.60;99.90
11389;DHT22;5750;48.474;8.952;2022-08-21T08:27:48;22.90;99.90
11389;DHT22;5750;48.474;8.952;2022-08-21T08:30:19;22.90;99.90
11389;DHT22;5750;48.474;8.952;2022-08-21T08:32:46;23.20;99.90
11389;DHT22;5750;48.474;8.952;2022-08-21T08:35:13;23.30;99.90
11389;DHT22;5750;48.474;8.952;2022-08-21T08:37:41;23.60;99.90
11389;DHT22;5750;48.474;8.952;2022-08-21T08:40:11;24.50;99.90
11389;DHT22;5750;48.474;8.952;2022-08-21T08:42:38;24.00;99.90
11389;DHT22;5750;48.474;8.952;2022-08-21T08:45:08;23.80;99.90
11389;DHT22;5750;48.474;8.952;2022-08-21T08:47:42;24.00;99.90
11389;DHT22;5750;48.474;8.952;2022-08-21T08:50:13;24.10;99.90
11389;DHT22;5750;48.474;8.952;2022-08-21T08:52:47;24.30;99.90
11389;DHT22;5750;48.474;8.952;2022-08-21T08:55:18;24.30;99.50
11389;DHT22;5750;48.474;8.952;2022-08-21T08:57:46;24.40;98.80
11389;DHT22;5750;48.474;8.952;2022-08-21T09:00:17;24.80;99.90
11389;DHT22;5750;48.474;8.952;2022-08-21T09:02:46;25.30;99.60
11389;DHT22;5750;48.474;8.952;2022-08-21T09:05:20;25.80;98.50
11389;DHT22;5750;48.474;8.952;2022-08-21T09:07:57;25.30;98.40
11389;DHT22;5750;48.474;8.952;2022-08-21T09:10:34;25.10;98.00
11389;DHT22;5750;48.474;8.952;2022-08-21T09:13:07;25.00;98.50
11389;DHT22;5750;48.474;8.952;2022-08-21T09:15:44;25.40;99.40
11389;DHT22;5750;48.474;8.952;2022-08-21T09:18:28;25.70;97.20
11389;DHT22;5750;48.474;8.952;2022-08-21T09:21:07;26.20;96.40
11389;DHT22;5750;48.474;8.952;2022-08-21T09:23:43;26.60;95.50
11389;DHT22;5750;48.474;8.952;2022-08-21T09:26:14;27.50;93.70
11389;DHT22;5750;48.474;8.952;2022-08-21T09:28:41;28.20;91.40
11389;DHT22;5750;48.474;8.952;2022-08-21T09:31:11;28.40;92.20
11389;DHT22;5750;48.474;8.952;2022-08-21T09:33:42;28.50;91.40
11389;DHT22;5750;48.474;8.952;2022-08-21T09:36:09;28.80;91.50
11389;DHT22;5750;48.474;8.952;2022-08-21T09:38:36;28.60;90.50
11389;DHT22;5750;48.474;8.952;2022-08-21T09:41:06;28.10;87.90
11389;DHT22;5750;48.474;8.952;2022-08-21T09:43:33;28.30;87.80
11389;DHT22;5750;48.474;8.952;2022-08-21T09:46:08;28.90;89.80
11389;DHT22;5750;48.474;8.952;2022-08-21T09:48:43;29.40;88.00
11389;DHT22;5750;48.474;8.952;2022-08-21T09:51:13;31.20;81.90
11389;DHT22;5750;48.474;8.952;2022-08-21T09:53:44;32.50;80.80
11389;DHT22;5750;48.474;8.952;2022-08-21T09:56:21;30.40;74.70
11389;DHT22;5750;48.474;8.952;2022-08-21T09:59:19;31.00;75.20
11389;DHT22;5750;48.474;8.952;2022-08-21T10:01:49;31.10;72.10
11389;DHT22;5750;48.474;8.952;2022-08-21T10:04:22;31.40;71.80
11389;DHT22;5750;48.474;8.952;2022-08-21T10:06:49;32.00;71.60
11389;DHT22;5750;48.474;8.952;2022-08-21T10:09:18;33.10;72.40
11389;DHT22;5750;48.474;8.952;2022-08-21T10:11:50;33.10;68.10
11389;DHT22;5750;48.474;8.952;2022-08-21T10:14:25;32.80;67.20
11389;DHT22;5750;48.474;8.952;2022-08-21T10:17:00;33.00;73.90
11389;DHT22;5750;48.474;8.952;2022-08-21T10:19:37;32.80;84.80
11389;DHT22;5750;48.474;8.952;2022-08-21T10:22:16;31.90;72.30
11389;DHT22;5750;48.474;8.952;2022-08-21T10:24:50;31.00;70.90
11389;DHT22;5750;48.474;8.952;2022-08-21T10:27:25;30.50;72.70
11389;DHT22;5750;48.474;8.952;2022-08-21T10:29:59;30.90;73.10
11389;DHT22;5750;48.474;8.952;2022-08-21T10:32:37;30.30;69.60
11389;DHT22;5750;48.474;8.952;2022-08-21T10:35:12;30.00;73.90
11389;DHT22;5750;48.474;8.952;2022-08-21T10:37:48;29.80;72.70
11389;DHT22;5750;48.474;8.952;2022-08-21T10:40:24;29.30;73.40
11389;DHT22;5750;48.474;8.952;2022-08-21T10:43:03;29.20;73.70
11389;DHT22;5750;48.474;8.952;2022-08-21T10:45:48;28.70;72.80
11389;DHT22;5750;48.474;8.952;2022-08-21T10:48:22;28.10;74.70
11389;DHT22;5750;48.474;8.952;2022-08-21T10:50:54;28.50;77.70
11389;DHT22;5750;48.474;8.952;2022-08-21T10:53:34;28.50;77.60
11389;DHT22;5750;48.474;8.952;2022-08-21T10:56:11;28.30;78.90
11389;DHT22;5750;48.474;8.952;2022-08-21T10:58:46;27.80;78.50
11389;DHT22;5750;48.474;8.952;2022-08-21T11:01:18;27.50;82.20
11389;DHT22;5750;48.474;8.952;2022-08-21T11:03:51;27.30;83.60
11389;DHT22;5750;48.474;8.952;2022-08-21T11:06:24;27.00;82.40
11389;DHT22;5750;48.474;8.952;2022-08-21T11:08:55;26.70;87.10
11389;DHT22;5750;48.474;8.952;2022-08-21T11:11:29;25.80;81.20
11389;DHT22;5750;48.474;8.952;2022-08-21T11:14:02;26.80;75.30
11389;DHT22;5750;48.474;8.952;2022-08-21T11:16:37;26.90;77.40
11389;DHT22;5750;48.474;8.952;2022-08-21T11:19:10;26.70;80.80
11389;DHT22;5750;48.474;8.952;2022-08-21T11:21:45;26.80;83.70
11389;DHT22;5750;48.474;8.952;2022-08-21T11:24:28;26.80;82.50
11389;DHT22;5750;48.474;8.952;2022-08-21T11:26:59;26.80;81.60
11389;DHT22;5750;48.474;8.952;2022-08-21T11:29:31;26.80;80.40
11389;DHT22;5750;48.474;8.952;2022-08-21T11:32:22;26.90;71.60
11389;DHT22;5750;48.474;8.952;2022-08-21T11:34:54;26.90;74.10
11389;DHT22;5750;48.474;8.952;2022-08-21T11:37:35;26.70;71.80
11389;DHT22;5750;48.474;8.952;2022-08-21T11:40:10;26.70;72.40
11389;DHT22;5750;48.474;8.952;2022-08-21T11:42:44;26.30;78.40
11389;DHT22;5750;48.474;8.952;2022-08-21T11:45:19;26.60;69.80
11389;DHT22;5750;48.474;8.952;2022-08-21T11:47:56;26.70;65.10
11389;DHT22;5750;48.474;8.952;2022-08-21T11:50:28;27.10;66.60
11389;DHT22;5750;48.474;8.952;2022-08-21T11:53:01;27.10;71.50
11389;DHT22;5750;48.474;8.952;2022-08-21T11:55:33;27.00;71.90
11389;DHT22;5750;48.474;8.952;2022-08-21T11:58:07;26.90;67.90
11389;DHT22;5750;48.474;8.952;2022-08-21T12:00:38;26.80;70.40
11389;DHT22;5750;48.474;8.952;2022-08-21T12:03:08;26.80;69.40
11389;DHT22;5750;48.474;8.952;2022-08-21T12:05:39;26.70;73.70
11389;DHT22;5750;48.474;8.952;2022-08-21T12:08:28;26.80;74.60
11389;DHT22;5750;48.474;8.952;2022-08-21T12:11:03;27.00;74.40
11389;DHT22;5750;48.474;8.952;2022-08-21T12:13:32;27.00;75.20
11389;DHT22;5750;48.474;8.952;2022-08-21T12:16:06;26.90;78.00
11389;DHT22;5750;48.474;8.952;2022-08-21T12:18:34;27.00;77.40
11389;DHT22;5750;48.474;8.952;2022-08-21T12:21:16;27.00;74.50
11389;DHT22;5750;48.474;8.952;2022-08-21T12:23:47;26.90;69.60
11389;DHT22;5750;48.474;8.952;2022-08-21T12:26:26;27.00;71.10
11389;DHT22;5750;48.474;8.952;2022-08-21T12:29:07;27.10;75.20
11389;DHT22;5750;48.474;8.952;2022-08-21T12:31:48;27.00;70.60
11389;DHT22;5750;48.474;8.952;2022-08-21T12:34:15;27.00;72.80
11389;DHT22;5750;48.474;8.952;2022-08-21T12:36:44;27.20;74.10
11389;DHT22;5750;48.474;8.952;2022-08-21T12:39:15;27.30;73.80
11389;DHT22;5750;48.474;8.952;2022-08-21T12:41:48;27.40;65.50
11389;DHT22;5750;48.474;8.952;2022-08-21T12:44:20;27.50;71.70
11389;DHT22;5750;48.474;8.952;2022-08-21T12:46:51;27.40;72.80
11389;DHT22;5750;48.474;8.952;2022-08-21T12:49:27;27.40;72.80
11389;DHT22;5750;48.474;8.952;2022-08-21T12:52:00;27.40;73.50
11389;DHT22;5750;48.474;8.952;2022-08-21T12:54:31;27.40;72.80
11389;DHT22;5750;48.474;8.952;2022-08-21T12:57:00;27.20;68.70
11389;DHT22;5750;48.474;8.952;2022-08-21T12:59:28;27.50;64.00
11389;DHT22;5750;48.474;8.952;2022-08-21T13:01:56;27.50;68.00
11389;DHT22;5750;48.474;8.952;2022-08-21T13:04:31;27.30;71.10
11389;DHT22;5750;48.474;8.952;2022-08-21T13:07:00;27.60;69.30
11389;DHT22;5750;48.474;8.952;2022-08-21T13:09:29;27.80;74.10
11389;DHT22;5750;48.474;8.952;2022-08-21T13:11:57;27.70;72.10
11389;DHT22;5750;48.474;8.952;2022-08-21T13:14:29;27.70;71.00
11389;DHT22;5750;48.474;8.952;2022-08-21T13:16:58;27.50;68.20
11389;DHT22;5750;48.474;8.952;2022-08-21T13:19:26;27.40;74.70
11389;DHT22;5750;48.474;8.952;2022-08-21T13:21:55;27.50;76.80
11389;DHT22;5750;48.474;8.952;2022-08-21T13:24:24;27.70;73.20
11389;DHT22;5750;48.474;8.952;2022-08-21T13:26:53;27.70;76.30
11389;DHT22;5750;48.474;8.952;2022-08-21T13:29:22;27.40;74.20
11389;DHT22;5750;48.474;8.952;2022-08-21T13:31:51;27.50;76.70
11389;DHT22;5750;48.474;8.952;2022-08-21T13:34:19;27.70;68.50
11389;DHT22;5750;48.474;8.952;2022-08-21T13:36:47;27.70;71.90
11389;DHT22;5750;48.474;8.952;2022-08-21T13:39:16;27.70;74.70
11389;DHT22;5750;48.474;8.952;2022-08-21T13:41:47;27.30;70.80
11389;DHT22;5750;48.474;8.952;2022-08-21T13:44:17;27.10;72.50
11389;DHT22;5750;48.474;8.952;2022-08-21T13:46:44;27.20;69.70
11389;DHT22;5750;48.474;8.952;2022-08-21T13:49:14;27.10;69.90
11389;DHT22;5750;48.474;8.952;2022-08-21T13:51:42;27.00;66.60
11389;DHT22;5750;48.474;8.952;2022-08-21T13:54:23;26.80;69.10
11389;DHT22;5750;48.474;8.952;2022-08-21T13:56:51;26.80;65.50
11389;DHT22;5750;48.474;8.952;2022-08-21T13:59:28;26.90;66.70
11389;DHT22;5750;48.474;8.952;2022-08-21T14:01:57;27.10;62.90
11389;DHT22;5750;48.474;8.952;2022-08-21T14:04:31;27.40;63.50
11389;DHT22;5750;48.474;8.952;2022-08-21T14:06:59;27.30;59.30
11389;DHT22;5750;48.474;8.952;2022-08-21T14:09:30;27.80;56.00
11389;DHT22;5750;48.474;8.952;2022-08-21T14:11:59;27.80;55.50
11389;DHT22;5750;48.474;8.952;2022-08-21T14:14:30;27.90;56.60
11389;DHT22;5750;48.474;8.952;2022-08-21T14:16:59;27.90;58.90
11389;DHT22;5750;48.474;8.952;2022-08-21T14:19:35;28.00;63.60
11389;DHT22;5750;48.474;8.952;2022-08-21T14:22:21;28.00;60.80
11389;DHT22;5750;48.474;8.952;2022-08-21T14:24:48;28.20;57.50
11389;DHT22;5750;48.474;8.952;2022-08-21T14:27:17;28.30;58.30
11389;DHT22;5750;48.474;8.952;2022-08-21T14:29:45;28.40;57.10
11389;DHT22;5750;48.474;8.952;2022-08-21T14:32:15;28.40;56.80
11389;DHT22;5750;48.474;8.952;2022-08-21T14:34:42;28.60;55.10
11389;DHT22;5750;48.474;8.952;2022-08-21T14:37:09;28.50;55.20
11389;DHT22;5750;48.474;8.952;2022-08-21T14:39:36;28.50;55.00
11389;DHT22;5750;48.474;8.952;2022-08-21T14:42:03;28.40;60.30
11389;DHT22;5750;48.474;8.952;2022-08-21T14:44:30;28.40;53.70
11389;DHT22;5750;48.474;8.952;2022-08-21T14:46:59;28.40;55.90
11389;DHT22;5750;48.474;8.952;2022-08-21T14:49:28;28.40;57.00
11389;DHT22;5750;48.474;8.952;2022-08-21T14:51:55;28.40;56.60
11389;DHT22;5750;48.474;8.952;2022-08-21T14:54:23;28.50;54.60
11389;DHT22;5750;48.474;8.952;2022-08-21T14:56:50;27.70;54.50
11389;DHT22;5750;48.474;8.952;2022-08-21T14:59:17;28.40;54.30
11389;DHT22;5750;48.474;8.952;2022-08-21T15:01:46;28.40;55.80
11389;DHT22;5750;48.474;8.952;2022-08-21T15:04:14;28.10;60.10
11389;DHT22;5750;48.474;8.952;2022-08-21T15:06:41;28.40;65.20
11389;DHT22;5750;48.474;8.952;2022-08-21T15:09:08;27.90;58.40
11389;DHT22;5750;48.474;8.952;2022-08-21T15:11:34;28.50;56.20
11389;DHT22;5750;48.474;8.952;2022-08-21T15:14:03;28.50;56.20
11389;DHT22;5750;48.474;8.952;2022-08-21T15:16:33;28.40;51.50
11389;DHT22;5750;48.474;8.952;2022-08-21T15:19:00;28.40;51.30
11389;DHT22;5750;48.474;8.952;2022-08-21T15:21:28;28.00;53.40
11389;DHT22;5750;48.474;8.952;2022-08-21T15:23:55;28.20;56.20
11389;DHT22;5750;48.474;8.952;2022-08-21T15:26:22;27.80;54.40
11389;DHT22;5750;48.474;8.952;2022-08-21T15:28:49;28.20;53.70
11389;DHT22;5750;48.474;8.952;2022-08-21T15:31:16;28.20;54.60
11389;DHT22;5750;48.474;8.952;2022-08-21T15:33:42;28.30;55.50
11389;DHT22;5750;48.474;8.952;2022-08-21T15:36:09;28.30;56.10
11389;DHT22;5750;48.474;8.952;2022-08-21T15:38:37;28.20;58.90
11389;DHT22;5750;48.474;8.952;2022-08-21T15:41:04;28.20;62.90
11389;DHT22;5750;48.474;8.952;2022-08-21T15:43:37;28.20;59.00
11389;DHT22;5750;48.474;8.952;2022-08-21T15:46:10;28.20;62.00
11389;DHT22;5750;48.474;8.952;2022-08-21T15:48:37;28.20;60.00
11389;DHT22;5750;48.474;8.952;2022-08-21T15:51:04;28.20;62.70
11389;DHT22;5750;48.474;8.952;2022-08-21T15:53:31;28.20;58.30
11389;DHT22;5750;48.474;8.952;2022-08-21T15:56:03;28.00;59.50
11389;DHT22;5750;48.474;8.952;2022-08-21T15:58:30;28.10;56.80
11389;DHT22;5750;48.474;8.952;2022-08-21T16:00:58;28.00;61.30
11389;DHT22;5750;48.474;8.952;2022-08-21T16:03:25;27.90;59.70